createdAt,value
2022-10-17T00:01:10.155Z,100.00
2022-10-17T00:03:39.675Z,100.00
2022-10-17T00:06:09.094Z,100.00
2022-10-17T00:08:39.132Z,100.00
2022-10-17T00:11:11.114Z,100.00
2022-10-17T00:13:39.072Z,100.00
2022-10-17T00:16:08.126Z,100.00
2022-10-17T00:18:36.264Z,100.00
2022-10-17T00:21:04.654Z,100.00
2022-10-17T00:23:32.615Z,100.00
2022-10-17T00:26:03.522Z,100.00
2022-10-17T00:28:32.088Z,100.00
2022-10-17T00:31:01.919Z,100.00
2022-10-17T00:33:30.975Z,100.00
2022-10-17T00:36:07.403Z,100.00
2022-10-17T00:38:35.479Z,100.00
2022-10-17T00:41:05.354Z,100.00
2022-10-17T00:43:51.051Z,100.00
2022-10-17T00:46:19.126Z,100.00
2022-10-17T00:48:49.893Z,100.00
2022-10-17T00:51:18.895Z,100.00
2022-10-17T00:53:47.150Z,100.00
2022-10-17T00:56:17.462Z,100.00
2022-10-17T00:58:45.513Z,100.00
2022-10-17T01:01:13.973Z,100.00
2022-10-17T01:03:42.392Z,100.00
2022-10-17T01:06:10.428Z,100.00
2022-10-17T01:08:38.773Z,100.00
2022-10-17T01:11:18.809Z,100.00
2022-10-17T01:13:53.186Z,100.00
2022-10-17T01:16:33.264Z,100.00
2022-10-17T01:19:05.772Z,100.00
2022-10-17T01:21:44.800Z,100.00
2022-10-17T01:24:48.766Z,100.00
2022-10-17T01:27:38.444Z,100.00
2022-10-17T01:30:31.469Z,100.00
2022-10-17T01:33:08.258Z,100.00
2022-10-17T01:35:41.945Z,100.00
2022-10-17T01:38:13.060Z,100.00
2022-10-17T01:40:48.510Z,100.00
2022-10-17T01:43:22.722Z,100.00
2022-10-17T01:45:55.411Z,100.00
2022-10-17T01:48:25.667Z,100.00
2022-10-17T01:50:58.360Z,100.00
2022-10-17T01:53:29.640Z,100.00
2022-10-17T01:56:01.540Z,100.00
2022-10-17T01:58:33.421Z,100.00
2022-10-17T02:01:06.433Z,100.00
2022-10-17T02:03:37.054Z,100.00
2022-10-17T02:06:05.487Z,100.00
2022-10-17T02:08:43.013Z,100.00
2022-10-17T02:11:15.319Z,100.00
2022-10-17T02:14:00.004Z,100.00
2022-10-17T02:16:36.896Z,100.00
2022-10-17T02:19:47.986Z,100.00
2022-10-17T02:22:26.816Z,100.00
2022-10-17T02:25:02.997Z,100.00
2022-10-17T02:27:40.290Z,100.00
2022-10-17T02:30:13.841Z,100.00
2022-10-17T02:32:49.416Z,100.00
2022-10-17T02:35:22.194Z,100.00
2022-10-17T02:37:52.330Z,100.00
2022-10-17T02:40:25.262Z,100.00
2022-10-17T02:42:56.007Z,100.00
2022-10-17T02:45:26.647Z,100.00
2022-10-17T02:48:00.666Z,100.00
2022-10-17T02:50:40.680Z,100.00
2022-10-17T02:53:12.093Z,100.00
2022-10-17T02:55:44.816Z,100.00
2022-10-17T02:58:16.143Z,100.00
2022-10-17T03:00:44.497Z,100.00
2022-10-17T03:03:23.947Z,100.00
2022-10-17T03:05:54.453Z,100.00
2022-10-17T03:08:23.022Z,100.00
2022-10-17T03:10:51.254Z,100.00
2022-10-17T03:13:20.221Z,100.00
2022-10-17T03:15:48.262Z,100.00
2022-10-17T03:18:16.224Z,100.00
2022-10-17T03:20:44.248Z,100.00
2022-10-17T03:23:13.685Z,100.00
2022-10-17T03:25:42.122Z,100.00
2022-10-17T03:28:12.699Z,100.00
2022-10-17T03:30:40.668Z,100.00
2022-10-17T03:33:08.643Z,100.00
2022-10-17T03:35:40.223Z,100.00
2022-10-17T03:38:08.323Z,100.00
2022-10-17T03:40:37.741Z,100.00
2022-10-17T03:43:05.789Z,100.00
2022-10-17T03:45:33.777Z,100.00
2022-10-17T03:48:01.802Z,100.00
2022-10-17T03:50:29.761Z,100.00
2022-10-17T03:52:57.730Z,100.00
2022-10-17T03:55:25.769Z,100.00
2022-10-17T03:57:55.175Z,100.00
2022-10-17T04:00:23.224Z,100.00
2022-10-17T04:02:51.203Z,100.00
2022-10-17T04:05:19.202Z,100.00
2022-10-17T04:07:47.227Z,100.00
2022-10-17T04:10:15.259Z,100.00
2022-10-17T04:12:43.522Z,100.00
2022-10-17T04:15:13.388Z,100.00
2022-10-17T04:17:41.502Z,100.00
2022-10-17T04:20:10.815Z,100.00
2022-10-17T04:22:38.824Z,100.00
2022-10-17T04:25:08.019Z,100.00
2022-10-17T04:27:36.122Z,100.00
2022-10-17T04:30:04.302Z,100.00
2022-10-17T04:32:37.268Z,100.00
2022-10-17T04:35:05.728Z,100.00
2022-10-17T04:37:33.824Z,100.00
2022-10-17T04:40:01.800Z,100.00
2022-10-17T04:42:30.587Z,100.00
2022-10-17T04:44:58.784Z,100.00
2022-10-17T04:47:29.509Z,100.00
2022-10-17T04:50:00.003Z,100.00
2022-10-17T04:52:28.326Z,100.00
2022-10-17T04:54:56.534Z,100.00
2022-10-17T04:57:25.095Z,100.00
2022-10-17T04:59:53.148Z,100.00
2022-10-17T05:02:21.314Z,100.00
2022-10-17T05:04:49.307Z,100.00
2022-10-17T05:07:18.704Z,100.00
2022-10-17T05:09:46.701Z,100.00
2022-10-17T05:12:14.680Z,100.00
2022-10-17T05:14:42.668Z,100.00
2022-10-17T05:17:15.592Z,100.00
2022-10-17T05:19:43.596Z,100.00
2022-10-17T05:22:11.719Z,100.00
2022-10-17T05:24:43.210Z,100.00
2022-10-17T05:27:11.212Z,100.00
2022-10-17T05:29:39.841Z,100.00
2022-10-17T05:32:07.821Z,100.00
2022-10-17T05:34:35.868Z,100.00
2022-10-17T05:37:03.882Z,100.00
2022-10-17T05:39:31.858Z,100.00
2022-10-17T05:42:01.314Z,100.00
2022-10-17T05:44:29.445Z,100.00
2022-10-17T05:46:57.478Z,100.00
2022-10-17T05:49:33.413Z,100.00
2022-10-17T05:52:11.855Z,100.00
2022-10-17T05:54:39.916Z,100.00
2022-10-17T05:57:09.295Z,100.00
2022-10-17T05:59:37.268Z,100.00
2022-10-17T06:02:05.423Z,100.00
2022-10-17T06:04:33.913Z,100.00
2022-10-17T06:07:01.896Z,100.00
2022-10-17T06:09:30.039Z,100.00
2022-10-17T06:11:57.980Z,100.00
2022-10-17T06:14:27.448Z,100.00
2022-10-17T06:16:55.418Z,100.00
2022-10-17T06:19:23.399Z,100.00
2022-10-17T06:21:51.398Z,100.00
2022-10-17T06:24:19.420Z,100.00
2022-10-17T06:26:49.858Z,100.00
2022-10-17T06:29:18.121Z,100.00
2022-10-17T06:31:47.490Z,100.00
2022-10-17T06:34:15.503Z,100.00
2022-10-17T06:36:43.531Z,100.00
2022-10-17T06:39:12.117Z,100.00
2022-10-17T06:41:41.309Z,100.00
2022-10-17T06:44:11.393Z,100.00
2022-10-17T06:46:39.613Z,100.00
2022-10-17T06:49:09.034Z,100.00
2022-10-17T06:51:38.310Z,100.00
2022-10-17T06:54:06.298Z,100.00
2022-10-17T06:56:34.337Z,100.00
2022-10-17T06:59:02.336Z,100.00
2022-10-17T07:01:32.406Z,100.00
2022-10-17T07:04:00.482Z,100.00
2022-10-17T07:06:29.873Z,100.00
2022-10-17T07:08:58.469Z,100.00
2022-10-17T07:11:27.092Z,100.00
2022-10-17T07:13:55.115Z,100.00
2022-10-17T07:16:23.433Z,100.00
2022-10-17T07:18:52.493Z,100.00
2022-10-17T07:21:20.456Z,100.00
2022-10-17T07:23:49.848Z,100.00
2022-10-17T07:26:19.650Z,100.00
2022-10-17T07:28:52.118Z,100.00
2022-10-17T07:31:21.618Z,100.00
2022-10-17T07:33:50.353Z,100.00
2022-10-17T07:36:19.143Z,100.00
2022-10-17T07:38:47.155Z,100.00
2022-10-17T07:41:19.333Z,100.00
2022-10-17T07:43:49.943Z,100.00
2022-10-17T07:46:17.901Z,100.00
2022-10-17T07:48:46.254Z,100.00
2022-10-17T07:51:14.211Z,100.00
2022-10-17T07:53:46.389Z,100.00
2022-10-17T07:56:18.658Z,100.00
2022-10-17T07:58:48.385Z,100.00
2022-10-17T08:01:16.481Z,100.00
2022-10-17T08:03:45.768Z,100.00
2022-10-17T08:06:14.163Z,100.00
2022-10-17T08:08:42.797Z,100.00
2022-10-17T08:11:12.411Z,100.00
2022-10-17T08:13:42.877Z,100.00
2022-10-17T08:16:12.971Z,100.00
2022-10-17T08:18:42.787Z,100.00
2022-10-17T08:21:11.760Z,100.00
2022-10-17T08:23:39.991Z,100.00
2022-10-17T08:26:10.928Z,100.00
2022-10-17T08:28:40.309Z,100.00
2022-10-17T08:31:12.711Z,100.00
2022-10-17T08:33:41.159Z,100.00
2022-10-17T08:36:09.942Z,100.00
2022-10-17T08:38:43.052Z,100.00
2022-10-17T08:41:22.186Z,100.00
2022-10-17T08:44:04.987Z,100.00
2022-10-17T08:46:35.640Z,100.00
2022-10-17T08:49:10.057Z,100.00
2022-10-17T08:51:45.538Z,100.00
2022-10-17T08:54:19.045Z,100.00
2022-10-17T08:56:50.422Z,100.00
2022-10-17T08:59:24.610Z,100.00
2022-10-17T09:02:02.956Z,100.00
2022-10-17T09:04:59.128Z,100.00
2022-10-17T09:07:32.716Z,100.00
2022-10-17T09:10:08.950Z,100.00
2022-10-17T09:12:45.254Z,100.00
2022-10-17T09:15:31.999Z,100.00
2022-10-17T09:18:06.741Z,100.00
2022-10-17T09:20:38.763Z,100.00
2022-10-17T09:23:13.083Z,100.00
2022-10-17T09:25:45.376Z,100.00
2022-10-17T09:28:19.576Z,100.00
2022-10-17T09:30:48.849Z,100.00
2022-10-17T09:33:35.221Z,100.00
2022-10-17T09:36:14.549Z,100.00
2022-10-17T09:38:45.700Z,100.00
2022-10-17T09:41:44.214Z,100.00
2022-10-17T09:44:19.529Z,100.00
2022-10-17T09:47:02.206Z,100.00
2022-10-17T09:49:33.577Z,100.00
2022-10-17T09:52:02.591Z,100.00
2022-10-17T09:54:41.390Z,99.23
2022-10-17T09:57:11.655Z,99.46
2022-10-17T09:59:42.333Z,96.94
2022-10-17T10:02:17.346Z,95.34
2022-10-17T10:05:05.907Z,91.33
2022-10-17T10:07:36.586Z,95.07
2022-10-17T10:10:07.611Z,96.35
2022-10-17T10:12:38.585Z,91.45
2022-10-17T10:15:33.588Z,87.25
2022-10-17T10:18:01.655Z,82.12
2022-10-17T10:20:35.408Z,86.27
2022-10-17T10:23:09.208Z,84.81
2022-10-17T10:25:37.743Z,82.78
2022-10-17T10:28:12.152Z,83.85
2022-10-17T10:30:40.302Z,82.25
2022-10-17T10:33:13.014Z,79.13
2022-10-17T10:35:42.440Z,80.12
2022-10-17T10:38:15.773Z,79.46
2022-10-17T10:40:48.196Z,74.75
2022-10-17T10:43:22.825Z,75.41
2022-10-17T10:45:52.500Z,76.45
2022-10-17T10:48:23.444Z,75.15
2022-10-17T10:50:56.816Z,79.94
2022-10-17T10:53:35.390Z,82.35
2022-10-17T10:56:09.195Z,73.74
2022-10-17T10:58:47.698Z,71.71
2022-10-17T11:01:21.672Z,73.69
2022-10-17T11:04:02.513Z,74.19
2022-10-17T11:06:38.059Z,77.99
2022-10-17T11:09:24.032Z,72.43
2022-10-17T11:11:57.529Z,72.42
2022-10-17T11:14:39.338Z,75.11
2022-10-17T11:17:14.249Z,79.17
2022-10-17T11:19:49.973Z,77.60
2022-10-17T11:22:28.318Z,75.12
2022-10-17T11:25:00.920Z,75.76
2022-10-17T11:27:30.662Z,74.14
2022-10-17T11:29:59.718Z,75.43
2022-10-17T11:32:32.882Z,73.43
2022-10-17T11:35:06.424Z,72.78
2022-10-17T11:37:40.793Z,69.58
2022-10-17T11:40:19.296Z,73.88
2022-10-17T11:42:55.075Z,71.85
2022-10-17T11:45:27.644Z,66.27
2022-10-17T11:48:03.092Z,68.59
2022-10-17T11:53:27.418Z,68.56
2022-10-17T11:55:59.516Z,73.10
2022-10-17T11:58:38.602Z,73.73
2022-10-17T12:01:16.690Z,68.72
2022-10-17T12:03:58.875Z,71.63
2022-10-17T12:06:40.917Z,70.03
2022-10-17T12:09:17.537Z,74.57
2022-10-17T12:11:55.895Z,70.60
2022-10-17T12:14:44.210Z,65.71
2022-10-17T12:17:35.544Z,71.58
2022-10-17T12:20:28.654Z,66.31
2022-10-17T12:22:59.288Z,70.70
2022-10-17T12:25:32.186Z,70.05
2022-10-17T12:28:14.597Z,63.62
2022-10-17T12:30:52.736Z,65.88
2022-10-17T12:33:23.365Z,67.93
2022-10-17T12:36:12.714Z,67.13
2022-10-17T12:38:40.994Z,65.34
2022-10-17T12:41:11.538Z,66.56
2022-10-17T12:43:57.216Z,67.96
2022-10-17T12:46:58.531Z,63.12
2022-10-17T12:49:39.996Z,63.50
2022-10-17T12:52:29.946Z,64.43
2022-10-17T12:55:14.841Z,63.75
2022-10-17T12:57:51.603Z,62.45
2022-10-17T13:00:29.006Z,63.24
2022-10-17T13:03:06.307Z,64.20
2022-10-17T13:05:37.230Z,62.48
2022-10-17T13:08:07.432Z,63.16
2022-10-17T13:10:41.826Z,61.59
2022-10-17T13:13:18.463Z,64.04
2022-10-17T13:15:50.824Z,65.41
2022-10-17T13:18:22.190Z,65.72
2022-10-17T13:20:58.430Z,66.39
2022-10-17T13:23:27.491Z,63.60
2022-10-17T13:26:07.275Z,62.28
2022-10-17T13:28:39.398Z,63.36
2022-10-17T13:31:07.928Z,65.61
2022-10-17T13:33:39.491Z,66.89
2022-10-17T13:36:15.823Z,65.69
2022-10-17T13:38:44.427Z,64.92
2022-10-17T13:41:35.819Z,65.34
2022-10-17T13:44:10.742Z,65.41
2022-10-17T13:46:41.660Z,68.17
2022-10-17T13:49:21.372Z,68.49
2022-10-17T13:51:53.827Z,71.28
2022-10-17T13:54:37.445Z,69.44
2022-10-17T13:57:06.494Z,66.77
2022-10-17T13:59:40.106Z,64.91
2022-10-17T14:02:14.687Z,65.51
2022-10-17T14:05:15.251Z,69.43
2022-10-17T14:08:05.389Z,68.68
2022-10-17T14:10:31.865Z,69.57
2022-10-17T14:13:01.378Z,70.94
2022-10-17T14:15:33.557Z,71.00
2022-10-17T14:18:07.814Z,72.54
2022-10-17T14:23:34.414Z,71.05
2022-10-17T14:26:15.088Z,73.03
2022-10-17T14:28:46.662Z,73.16
2022-10-17T14:31:31.408Z,71.83
2022-10-17T14:34:01.128Z,72.42
2022-10-17T14:36:35.667Z,73.91
2022-10-17T14:39:04.828Z,75.82
2022-10-17T14:41:44.179Z,73.93
2022-10-17T14:44:20.903Z,75.47
2022-10-17T14:46:54.718Z,77.23
2022-10-17T14:49:29.037Z,75.48
2022-10-17T14:52:31.966Z,78.31
2022-10-17T14:55:01.947Z,77.81
2022-10-17T14:57:42.801Z,77.57
2022-10-17T15:00:15.890Z,78.36
2022-10-17T15:02:46.169Z,79.50
2022-10-17T15:05:15.029Z,80.06
2022-10-17T15:07:43.807Z,81.12
2022-10-17T15:10:26.319Z,82.02
2022-10-17T15:12:59.183Z,82.20
2022-10-17T15:15:33.442Z,82.77
2022-10-17T15:18:02.959Z,84.31
2022-10-17T15:20:31.478Z,84.85
2022-10-17T15:23:01.041Z,85.41
2022-10-17T15:25:30.434Z,86.70
2022-10-17T15:27:59.320Z,86.33
2022-10-17T15:30:29.171Z,88.46
2022-10-17T15:32:57.217Z,88.64
2022-10-17T15:35:27.483Z,89.34
2022-10-17T15:37:55.943Z,90.31
2022-10-17T15:40:26.471Z,91.13
2022-10-17T15:42:54.456Z,92.93
2022-10-17T15:45:22.922Z,93.07
2022-10-17T15:47:53.065Z,94.42
2022-10-17T15:50:21.868Z,95.07
2022-10-17T15:52:52.378Z,97.10
2022-10-17T15:55:21.214Z,96.01
2022-10-17T15:57:50.400Z,97.77
2022-10-17T16:00:21.501Z,97.23
2022-10-17T16:02:50.449Z,96.61
2022-10-17T16:05:23.409Z,98.17
2022-10-17T16:07:53.682Z,100.00
2022-10-17T16:10:23.024Z,100.00
2022-10-17T16:12:51.347Z,100.00
2022-10-17T16:15:22.889Z,100.00
2022-10-17T16:17:51.137Z,100.00
2022-10-17T16:20:19.721Z,100.00
2022-10-17T16:22:48.395Z,100.00
2022-10-17T16:25:23.293Z,100.00
2022-10-17T16:27:53.418Z,100.00
2022-10-17T16:32:57.002Z,100.00
2022-10-17T16:35:28.929Z,100.00
2022-10-17T16:37:59.566Z,100.00
2022-10-17T16:40:29.143Z,100.00
2022-10-17T16:42:57.143Z,100.00
2022-10-17T16:45:25.118Z,100.00
2022-10-17T16:47:53.332Z,100.00
2022-10-17T16:50:21.630Z,100.00
2022-10-17T16:52:49.675Z,100.00
2022-10-17T16:55:19.492Z,100.00
2022-10-17T16:57:49.775Z,100.00
2022-10-17T17:00:18.888Z,100.00
2022-10-17T17:02:49.746Z,100.00
2022-10-17T17:05:17.797Z,100.00
2022-10-17T17:07:47.880Z,100.00
2022-10-17T17:10:16.059Z,100.00
2022-10-17T17:12:44.510Z,100.00
2022-10-17T17:15:14.407Z,100.00
2022-10-17T17:17:51.244Z,100.00
2022-10-17T17:20:20.384Z,100.00
2022-10-17T17:22:48.861Z,100.00
2022-10-17T17:25:17.417Z,100.00
2022-10-17T17:27:45.671Z,100.00
2022-10-17T17:30:15.489Z,100.00
2022-10-17T17:32:43.587Z,100.00
2022-10-17T17:35:12.085Z,100.00
2022-10-17T17:37:40.600Z,100.00
2022-10-17T17:40:09.862Z,100.00
2022-10-17T17:42:38.015Z,100.00
2022-10-17T17:45:07.351Z,100.00
2022-10-17T17:47:36.780Z,100.00
2022-10-17T17:50:05.287Z,100.00
2022-10-17T17:52:33.414Z,100.00
2022-10-17T17:55:01.989Z,100.00
2022-10-17T17:57:40.214Z,100.00
2022-10-17T18:00:11.503Z,100.00
2022-10-17T18:02:43.704Z,100.00
2022-10-17T18:05:14.272Z,100.00
2022-10-17T18:07:42.524Z,100.00
2022-10-17T18:12:44.316Z,100.00
2022-10-17T18:15:13.129Z,100.00
2022-10-17T18:17:45.323Z,100.00
2022-10-17T18:20:14.024Z,100.00
2022-10-17T18:22:42.087Z,100.00
2022-10-17T18:25:10.860Z,100.00
2022-10-17T18:27:39.519Z,100.00
2022-10-17T18:30:09.336Z,100.00
2022-10-17T18:32:37.703Z,100.00
2022-10-17T18:35:08.223Z,100.00
2022-10-17T18:37:36.608Z,100.00
2022-10-17T18:40:08.585Z,100.00
2022-10-17T18:42:37.747Z,100.00
2022-10-17T18:45:07.051Z,100.00
2022-10-17T18:47:35.554Z,100.00
2022-10-17T18:50:04.027Z,100.00
2022-10-17T18:52:34.170Z,100.00
2022-10-17T18:55:03.265Z,100.00
2022-10-17T18:57:31.547Z,100.00
2022-10-17T18:59:59.697Z,100.00
2022-10-17T19:02:28.191Z,100.00
2022-10-17T19:04:56.475Z,100.00
2022-10-17T19:07:24.971Z,100.00
2022-10-17T19:09:54.446Z,100.00
2022-10-17T19:12:22.453Z,100.00
2022-10-17T19:14:50.818Z,100.00
2022-10-17T19:17:22.597Z,100.00
2022-10-17T19:19:52.390Z,100.00
2022-10-17T19:22:20.516Z,100.00
2022-10-17T19:24:48.561Z,100.00
2022-10-17T19:27:20.338Z,100.00
2022-10-17T19:29:48.377Z,100.00
2022-10-17T19:32:19.182Z,100.00
2022-10-17T19:34:50.524Z,100.00
2022-10-17T19:37:19.020Z,100.00
2022-10-17T19:39:47.162Z,100.00
2022-10-17T19:42:16.603Z,100.00
2022-10-17T19:44:46.405Z,100.00
2022-10-17T19:47:15.551Z,100.00
2022-10-17T19:49:47.712Z,100.00
2022-10-17T19:52:18.021Z,100.00
2022-10-17T19:54:46.104Z,100.00
2022-10-17T19:57:14.363Z,100.00
2022-10-17T19:59:42.401Z,100.00
2022-10-17T20:02:14.415Z,100.00
2022-10-17T20:04:49.728Z,100.00
2022-10-17T20:07:34.291Z,100.00
2022-10-17T20:10:02.818Z,100.00
2022-10-17T20:12:31.070Z,100.00
2022-10-17T20:14:59.378Z,100.00
2022-10-17T20:17:28.901Z,100.00
2022-10-17T20:19:56.916Z,100.00
2022-10-17T20:22:24.930Z,100.00
2022-10-17T20:24:53.059Z,100.00
2022-10-17T20:27:25.475Z,100.00
2022-10-17T20:29:58.039Z,100.00
2022-10-17T20:32:26.101Z,100.00
2022-10-17T20:34:55.617Z,100.00
2022-10-17T20:37:24.155Z,100.00
2022-10-17T20:40:10.730Z,100.00
2022-10-17T20:42:40.306Z,100.00
2022-10-17T20:45:08.891Z,100.00
2022-10-17T20:47:46.161Z,100.00
2022-10-17T20:50:17.641Z,100.00
2022-10-17T20:52:45.677Z,100.00
2022-10-17T20:55:13.628Z,100.00
2022-10-17T20:57:41.640Z,100.00
2022-10-17T21:00:10.949Z,100.00
2022-10-17T21:02:39.006Z,100.00
2022-10-17T21:05:07.450Z,100.00
2022-10-17T21:07:37.717Z,100.00
2022-10-17T21:10:24.023Z,100.00
2022-10-17T21:12:55.164Z,100.00
2022-10-17T21:15:23.458Z,100.00
2022-10-17T21:17:51.470Z,100.00
2022-10-17T21:20:19.608Z,100.00
2022-10-17T21:22:48.967Z,100.00
2022-10-17T21:25:17.047Z,100.00
2022-10-17T21:27:45.058Z,100.00
2022-10-17T21:30:13.290Z,100.00
2022-10-17T21:32:52.083Z,100.00
2022-10-17T21:35:20.325Z,100.00
2022-10-17T21:37:49.675Z,100.00
2022-10-17T21:40:17.684Z,100.00
2022-10-17T21:42:45.657Z,100.00
2022-10-17T21:45:15.867Z,100.00
2022-10-17T21:48:11.317Z,100.00
2022-10-17T21:50:36.143Z,100.00
2022-10-17T21:53:05.590Z,100.00
2022-10-17T21:55:33.646Z,100.00
2022-10-17T21:58:01.737Z,100.00
2022-10-17T22:00:29.829Z,100.00
2022-10-17T22:02:57.839Z,100.00
2022-10-17T22:05:25.829Z,100.00
2022-10-17T22:07:53.819Z,100.00
2022-10-17T22:10:23.249Z,100.00
2022-10-17T22:12:51.230Z,100.00
2022-10-17T22:15:19.240Z,100.00
2022-10-17T22:17:47.258Z,100.00
2022-10-17T22:20:15.542Z,100.00
2022-10-17T22:22:43.504Z,100.00
2022-10-17T22:25:11.482Z,100.00
2022-10-17T22:27:40.954Z,100.00
2022-10-17T22:30:10.179Z,100.00
2022-10-17T22:32:38.211Z,100.00
2022-10-17T22:35:07.074Z,100.00
2022-10-17T22:37:35.087Z,100.00
2022-10-17T22:40:03.094Z,100.00
2022-10-17T22:42:31.747Z,100.00
2022-10-17T22:45:01.542Z,100.00
2022-10-17T22:47:30.346Z,100.00
2022-10-17T22:49:58.784Z,100.00
2022-10-17T22:52:26.779Z,100.00
2022-10-17T22:54:54.800Z,100.00
2022-10-17T22:57:22.909Z,100.00
2022-10-17T22:59:50.946Z,100.00
2022-10-17T23:02:20.323Z,100.00
2022-10-17T23:04:48.925Z,100.00
2022-10-17T23:07:17.037Z,100.00
2022-10-17T23:09:45.310Z,100.00
2022-10-17T23:12:13.695Z,100.00
2022-10-17T23:14:43.827Z,100.00
2022-10-17T23:17:13.054Z,100.00
2022-10-17T23:19:43.328Z,100.00
2022-10-17T23:22:12.142Z,100.00
2022-10-17T23:24:40.200Z,100.00
2022-10-17T23:27:08.181Z,100.00
2022-10-17T23:29:36.568Z,100.00
2022-10-17T23:32:04.762Z,100.00
2022-10-17T23:34:32.725Z,100.00
2022-10-17T23:37:02.397Z,100.00
2022-10-17T23:39:30.385Z,100.00
2022-10-17T23:41:58.380Z,100.00
2022-10-17T23:44:26.436Z,100.00
2022-10-17T23:46:54.460Z,100.00
2022-10-17T23:49:22.436Z,100.00
2022-10-17T23:51:50.451Z,100.00
2022-10-17T23:54:19.819Z,100.00
2022-10-17T23:56:47.813Z,100.00
2022-10-17T23:59:15.802Z,100.00
